Ertholm — OVJX — position and weather

sailwx.info

Track history (hours):
 
Tides and Currents Weather Stations Pressure Air Temp Water Temp Dewpoint Dewpoint Depression Visibility Wind Speed Wind Dir Waves Ship Positions

Ertholm

Last reported at 2014-Oct-22 09:24 UTC. Time now 2014-Oct-22 09:41 UTC.
Position N 55°15' E 014°50'.

Length 38 m; draft 2.3 m.

Type: Ship. MMSI: 219000751.

Date/timePositionNaut miles runAvg speedWind from/ knotsBaromVisibWave heightAir tempDewpointWater temp
2014-Oct-22 09:24N 55°15' E 014°50'0 0.0
2014-Oct-22 08:30N 55°15' E 014°50'0 0.0
2014-Oct-22 07:33N 55°15' E 014°50'0 0.0
2014-Oct-22 06:12N 55°15' E 014°50'0 0.0
2014-Oct-22 03:31N 55°15' E 014°50'0 0.0
2014-Oct-21 19:30N 55°15' E 014°50'0 0.0
2014-Oct-21 18:29N 55°15' E 014°50'0 0.0
2014-Oct-21 16:33N 55°15' E 014°50'0 0.0
2014-Oct-21 15:33N 55°15' E 014°50'0 0.0
2014-Oct-21 14:34N 55°15' E 014°50'0 0.0
2014-Oct-21 13:33N 55°15' E 014°50'0 0.0
2014-Oct-21 12:33N 55°15' E 014°50'0 0.0
2014-Oct-21 11:33N 55°15' E 014°50'0 0.0
2014-Oct-21 10:33N 55°15' E 014°50'0 0.0
2014-Oct-21 09:33N 55°15' E 014°50'0 0.0
2014-Oct-21 04:33N 55°15' E 014°50'0 0.0
2014-Oct-21 03:30N 55°15' E 014°50'0 0.0
2014-Oct-21 02:34N 55°15' E 014°50'0 0.0
2014-Oct-21 01:33N 55°15' E 014°50'0 0.0
2014-Oct-21 00:34N 55°15' E 014°50'0 0.0
2014-Oct-20 23:33N 55°15' E 014°50'0 0.0
2014-Oct-20 22:33N 55°15' E 014°50'0 0.0
2014-Oct-20 21:34N 55°15' E 014°50'0 0.0
2014-Oct-20 20:34N 55°15' E 014°50'0 0.0
2014-Oct-20 19:34N 55°15' E 014°50'0 0.0
2014-Oct-20 18:33N 55°15' E 014°50'0 0.0
2014-Oct-20 17:33N 55°15' E 014°50'0 0.0
2014-Oct-20 16:33N 55°15' E 014°50'0 0.0
2014-Oct-20 15:33N 55°15' E 014°50'0 0.0
2014-Oct-20 14:33N 55°15' E 014°50'0 0.0
2014-Oct-20 13:33N 55°15' E 014°50'0 0.0
2014-Oct-20 12:34N 55°15' E 014°50'0 0.0
2014-Oct-20 11:33N 55°15' E 014°50'0 0.0
2014-Oct-20 10:33N 55°15' E 014°50'0 0.0
2014-Oct-20 09:33N 55°15' E 014°50'0 0.0
2014-Oct-20 08:33N 55°15' E 014°50'0 0.0
2014-Oct-20 07:34N 55°15' E 014°50'0 0.0
2014-Oct-20 06:33N 55°15' E 014°50'0 0.0
2014-Oct-20 05:34N 55°15' E 014°50'0 0.0
2014-Oct-20 04:33N 55°15' E 014°50'0 0.0
2014-Oct-20 03:33N 55°15' E 014°50'0 0.0
2014-Oct-20 02:33N 55°15' E 014°50'0 0.0
2014-Oct-20 00:33N 55°15' E 014°50'0 0.0
2014-Oct-19 23:33N 55°15' E 014°50'0 0.0
2014-Oct-19 22:33N 55°15' E 014°50'0 0.0
2014-Oct-19 21:34N 55°15' E 014°50'0 0.0
2014-Oct-19 20:33N 55°15' E 014°50'0 0.0
2014-Oct-19 19:33N 55°15' E 014°50'0 0.0
2014-Oct-19 18:27N 55°15' E 014°50'0 0.0
2014-Oct-19 16:17N 55°15' E 014°50'0 0.0
2014-Oct-19 15:33N 55°15' E 014°50'0 0.0
2014-Oct-19 14:34N 55°15' E 014°50'0 0.0
2014-Oct-19 13:32N 55°15' E 014°50'0 0.0
2014-Oct-19 12:34N 55°15' E 014°50'0 0.0
2014-Oct-19 11:33N 55°15' E 014°50'0 0.0
2014-Oct-19 10:34N 55°15' E 014°50'  
2014-Oct-16 13:33N 55°15' E 014°51'7 6.7
2014-Oct-16 12:33N 55°15' E 015°03'6 6.2
2014-Oct-16 11:33N 55°19' E 015°11'0 0.0
2014-Oct-16 10:33N 55°19' E 015°11'0 0.0
2014-Oct-16 09:33N 55°19' E 015°11'4 4.1
2014-Oct-16 08:33N 55°17' E 015°06'6 5.6
2014-Oct-16 07:32N 55°13' E 014°58'0 0.3
2014-Oct-16 06:33N 55°13' E 014°58'5 0.3
2014-Oct-15 13:32N 55°15' E 014°51'7 7.5
2014-Oct-15 12:33N 55°16' E 015°04'6 5.6
2014-Oct-15 11:33N 55°19' E 015°11'0 0.0
2014-Oct-15 10:33N 55°19' E 015°11'0 0.0
2014-Oct-15 09:33N 55°19' E 015°11'4 3.6
2014-Oct-15 08:33N 55°17' E 015°06'6 6.2
2014-Oct-15 07:33N 55°13' E 014°58'5 0.3
2014-Oct-14 13:07N 55°15' E 014°51'611.6
2014-Oct-14 12:33N 55°17' E 015°01'6 5.8
2014-Oct-14 11:33N 55°19' E 015°11'0 0.0
2014-Oct-14 10:33N 55°19' E 015°11'0 0.0
2014-Oct-14 09:33N 55°19' E 015°11'8 7.7
2014-Oct-14 08:33N 55°17' E 014°58'5 0.3
2014-Oct-13 13:34N 55°15' E 014°50'7 7.4
2014-Oct-13 12:33N 55°15' E 015°03'6 6.0
2014-Oct-13 11:33N 55°19' E 015°11'0 0.0
2014-Oct-13 10:33N 55°19' E 015°11'0 0.0
2014-Oct-13 09:33N 55°19' E 015°11'4 4.1
2014-Oct-13 08:33N 55°17' E 015°05'6 5.7
2014-Oct-13 07:33N 55°13' E 014°58'0 0.0
2014-Oct-13 06:33N 55°13' E 014°58'0 0.0
2014-Oct-13 05:33N 55°13' E 014°58'0 0.0
2014-Oct-13 04:32N 55°13' E 014°58'0 0.0
2014-Oct-13 03:33N 55°13' E 014°58'0 0.0
2014-Oct-13 02:31N 55°13' E 014°58'0 0.0
2014-Oct-13 01:33N 55°13' E 014°58'0 0.0
2014-Oct-13 00:33N 55°13' E 014°58'0 0.0
2014-Oct-12 23:33N 55°13' E 014°58'  
Track history (hours):
 
Tides and Currents Weather Stations Pressure Air Temp Water Temp Dewpoint Dewpoint Depression Visibility Wind Speed Wind Dir Waves Ship Positions

Ertholm

Last reported at 2014-Oct-22 09:24 UTC. Time now 2014-Oct-22 09:41 UTC.
Position N 55°15' E 014°50'.

Length 38 m; draft 2.3 m.

Type: Ship. MMSI: 219000751.

Date/timePositionNaut miles runAvg speedWind from/ knotsBaromVisibWave heightAir tempDewpointWater temp
2014-Oct-22 09:24N 55°15' E 014°50'0 0.0
2014-Oct-22 08:30N 55°15' E 014°50'0 0.0
2014-Oct-22 07:33N 55°15' E 014°50'0 0.0
2014-Oct-22 06:12N 55°15' E 014°50'0 0.0
2014-Oct-22 03:31N 55°15' E 014°50'0 0.0
2014-Oct-21 19:30N 55°15' E 014°50'0 0.0
2014-Oct-21 18:29N 55°15' E 014°50'0 0.0
2014-Oct-21 16:33N 55°15' E 014°50'0 0.0
2014-Oct-21 15:33N 55°15' E 014°50'0 0.0
2014-Oct-21 14:34N 55°15' E 014°50'0 0.0
2014-Oct-21 13:33N 55°15' E 014°50'0 0.0
2014-Oct-21 12:33N 55°15' E 014°50'0 0.0
2014-Oct-21 11:33N 55°15' E 014°50'0 0.0
2014-Oct-21 10:33N 55°15' E 014°50'0 0.0
2014-Oct-21 09:33N 55°15' E 014°50'0 0.0
2014-Oct-21 04:33N 55°15' E 014°50'0 0.0
2014-Oct-21 03:30N 55°15' E 014°50'0 0.0
2014-Oct-21 02:34N 55°15' E 014°50'0 0.0
2014-Oct-21 01:33N 55°15' E 014°50'0 0.0
2014-Oct-21 00:34N 55°15' E 014°50'0 0.0
2014-Oct-20 23:33N 55°15' E 014°50'0 0.0
2014-Oct-20 22:33N 55°15' E 014°50'0 0.0
2014-Oct-20 21:34N 55°15' E 014°50'0 0.0
2014-Oct-20 20:34N 55°15' E 014°50'0 0.0
2014-Oct-20 19:34N 55°15' E 014°50'0 0.0
2014-Oct-20 18:33N 55°15' E 014°50'0 0.0
2014-Oct-20 17:33N 55°15' E 014°50'0 0.0
2014-Oct-20 16:33N 55°15' E 014°50'0 0.0
2014-Oct-20 15:33N 55°15' E 014°50'0 0.0
2014-Oct-20 14:33N 55°15' E 014°50'0 0.0
2014-Oct-20 13:33N 55°15' E 014°50'0 0.0
2014-Oct-20 12:34N 55°15' E 014°50'0 0.0
2014-Oct-20 11:33N 55°15' E 014°50'0 0.0
2014-Oct-20 10:33N 55°15' E 014°50'0 0.0
2014-Oct-20 09:33N 55°15' E 014°50'0 0.0
2014-Oct-20 08:33N 55°15' E 014°50'0 0.0
2014-Oct-20 07:34N 55°15' E 014°50'0 0.0
2014-Oct-20 06:33N 55°15' E 014°50'0 0.0
2014-Oct-20 05:34N 55°15' E 014°50'0 0.0
2014-Oct-20 04:33N 55°15' E 014°50'0 0.0
2014-Oct-20 03:33N 55°15' E 014°50'0 0.0
2014-Oct-20 02:33N 55°15' E 014°50'0 0.0
2014-Oct-20 00:33N 55°15' E 014°50'0 0.0
2014-Oct-19 23:33N 55°15' E 014°50'0 0.0
2014-Oct-19 22:33N 55°15' E 014°50'0 0.0
2014-Oct-19 21:34N 55°15' E 014°50'0 0.0
2014-Oct-19 20:33N 55°15' E 014°50'0 0.0
2014-Oct-19 19:33N 55°15' E 014°50'0 0.0
2014-Oct-19 18:27N 55°15' E 014°50'0 0.0
2014-Oct-19 16:17N 55°15' E 014°50'0 0.0
2014-Oct-19 15:33N 55°15' E 014°50'0 0.0
2014-Oct-19 14:34N 55°15' E 014°50'0 0.0
2014-Oct-19 13:32N 55°15' E 014°50'0 0.0
2014-Oct-19 12:34N 55°15' E 014°50'0 0.0
2014-Oct-19 11:33N 55°15' E 014°50'0 0.0
2014-Oct-19 10:34N 55°15' E 014°50'  
2014-Oct-16 13:33N 55°15' E 014°51'7 6.7
2014-Oct-16 12:33N 55°15' E 015°03'6 6.2
2014-Oct-16 11:33N 55°19' E 015°11'0 0.0
2014-Oct-16 10:33N 55°19' E 015°11'0 0.0
2014-Oct-16 09:33N 55°19' E 015°11'4 4.1
2014-Oct-16 08:33N 55°17' E 015°06'6 5.6
2014-Oct-16 07:32N 55°13' E 014°58'0 0.3
2014-Oct-16 06:33N 55°13' E 014°58'5 0.3
2014-Oct-15 13:32N 55°15' E 014°51'7 7.5
2014-Oct-15 12:33N 55°16' E 015°04'6 5.6
2014-Oct-15 11:33N 55°19' E 015°11'0 0.0
2014-Oct-15 10:33N 55°19' E 015°11'0 0.0
2014-Oct-15 09:33N 55°19' E 015°11'4 3.6
2014-Oct-15 08:33N 55°17' E 015°06'6 6.2
2014-Oct-15 07:33N 55°13' E 014°58'5 0.3
2014-Oct-14 13:07N 55°15' E 014°51'611.6
2014-Oct-14 12:33N 55°17' E 015°01'6 5.8
2014-Oct-14 11:33N 55°19' E 015°11'0 0.0
2014-Oct-14 10:33N 55°19' E 015°11'0 0.0
2014-Oct-14 09:33N 55°19' E 015°11'8 7.7
2014-Oct-14 08:33N 55°17' E 014°58'5 0.3
2014-Oct-13 13:34N 55°15' E 014°50'7 7.4
2014-Oct-13 12:33N 55°15' E 015°03'6 6.0
2014-Oct-13 11:33N 55°19' E 015°11'0 0.0
2014-Oct-13 10:33N 55°19' E 015°11'0 0.0
2014-Oct-13 09:33N 55°19' E 015°11'4 4.1
2014-Oct-13 08:33N 55°17' E 015°05'6 5.7
2014-Oct-13 07:33N 55°13' E 014°58'0 0.0
2014-Oct-13 06:33N 55°13' E 014°58'0 0.0
2014-Oct-13 05:33N 55°13' E 014°58'0 0.0
2014-Oct-13 04:32N 55°13' E 014°58'0 0.0
2014-Oct-13 03:33N 55°13' E 014°58'0 0.0
2014-Oct-13 02:31N 55°13' E 014°58'0 0.0
2014-Oct-13 01:33N 55°13' E 014°58'0 0.0
2014-Oct-13 00:33N 55°13' E 014°58'0 0.0
2014-Oct-12 23:33N 55°13' E 014°58'  

Dump ship's entire track history